createdAt,value
2023-02-05T00:02:20.436Z,6.88
2023-02-05T00:04:54.624Z,10.98
2023-02-05T00:07:21.845Z,4.45
2023-02-05T00:09:48.946Z,6.13
2023-02-05T00:12:22.467Z,7.15
2023-02-05T00:14:49.661Z,6.95
2023-02-05T00:17:16.790Z,7.38
2023-02-05T00:19:50.501Z,4.43
2023-02-05T00:22:17.636Z,6.28
2023-02-05T00:24:51.627Z,6.20
2023-02-05T00:27:18.897Z,4.60
2023-02-05T00:29:45.979Z,7.68
2023-02-05T00:32:19.498Z,7.25
2023-02-05T00:34:46.783Z,8.95
2023-02-05T00:37:20.715Z,8.23
2023-02-05T00:39:47.884Z,6.47
2023-02-05T00:42:14.965Z,5.70
2023-02-05T00:44:49.080Z,7.40
2023-02-05T00:47:16.314Z,6.68
2023-02-05T00:49:50.622Z,9.02
2023-02-05T00:52:17.905Z,6.55
2023-02-05T00:54:45.056Z,6.25
2023-02-05T00:57:18.633Z,5.70
2023-02-05T00:59:52.554Z,9.02
2023-02-05T01:02:33.637Z,6.60
2023-02-05T01:05:00.862Z,10.00
2023-02-05T01:07:27.953Z,4.05
2023-02-05T01:10:01.611Z,6.25
2023-02-05T01:12:28.857Z,8.20
2023-02-05T01:15:02.639Z,6.18
2023-02-05T01:17:29.797Z,7.25
2023-02-05T01:19:57.020Z,9.02
2023-02-05T01:22:30.481Z,6.80
2023-02-05T01:24:57.726Z,5.05
2023-02-05T01:27:31.624Z,7.80
2023-02-05T01:29:58.820Z,9.27
2023-02-05T01:32:43.557Z,7.88
2023-02-05T01:35:10.759Z,6.25
2023-02-05T01:37:37.874Z,9.68
2023-02-05T01:40:11.564Z,10.20
2023-02-05T01:42:38.725Z,8.95
2023-02-05T01:45:32.040Z,5.72
2023-02-05T01:48:00.568Z,5.20
2023-02-05T01:50:34.529Z,9.77
2023-02-05T01:53:04.004Z,8.02
2023-02-05T01:55:38.615Z,10.40
2023-02-05T01:58:05.752Z,5.85
2023-02-05T02:00:39.518Z,7.50
2023-02-05T02:03:06.824Z,8.98
2023-02-05T02:05:40.653Z,7.70
2023-02-05T02:08:07.829Z,5.20
2023-02-05T02:10:35.419Z,11.18
2023-02-05T02:13:09.518Z,4.75
2023-02-05T02:15:36.808Z,4.13
2023-02-05T02:18:30.542Z,8.88
2023-02-05T02:21:16.428Z,6.05
2023-02-05T02:23:53.785Z,14.07
2023-02-05T02:26:33.683Z,9.00
2023-02-05T02:29:08.519Z,9.32
2023-02-05T02:31:46.432Z,5.70
2023-02-05T02:34:17.299Z,4.50
2023-02-05T02:37:09.465Z,12.00
2023-02-05T02:39:42.210Z,5.88
2023-02-05T02:42:20.455Z,5.72
2023-02-05T02:44:47.816Z,6.60
2023-02-05T02:47:23.707Z,6.30
2023-02-05T02:50:05.884Z,5.88
2023-02-05T02:52:41.471Z,10.88
2023-02-05T02:55:10.734Z,6.82
2023-02-05T02:57:40.366Z,6.88
2023-02-05T03:00:18.605Z,5.95
2023-02-05T03:02:54.505Z,6.97
2023-02-05T03:05:29.534Z,11.57
2023-02-05T03:08:08.382Z,7.30
2023-02-05T03:10:58.559Z,4.75
2023-02-05T03:13:45.626Z,8.13
2023-02-05T03:16:19.822Z,9.35
2023-02-05T03:18:47.334Z,7.93
2023-02-05T03:23:48.533Z,6.53
2023-02-05T03:26:29.435Z,6.97
2023-02-05T03:29:04.904Z,9.75
2023-02-05T03:31:40.211Z,7.00
2023-02-05T03:34:19.696Z,8.25
2023-02-05T03:36:53.390Z,6.90
2023-02-05T03:39:56.759Z,4.93
2023-02-05T03:42:32.326Z,5.72
2023-02-05T03:45:24.872Z,5.20
2023-02-05T03:48:01.440Z,5.72
2023-02-05T03:50:35.823Z,11.48
2023-02-05T03:53:26.074Z,11.15
2023-02-05T03:56:03.691Z,13.18
2023-02-05T03:58:44.568Z,7.00
2023-02-05T04:01:25.740Z,8.98
2023-02-05T04:03:52.936Z,9.80
2023-02-05T04:06:20.057Z,8.48
2023-02-05T04:08:53.516Z,8.10
2023-02-05T04:11:20.744Z,7.30
2023-02-05T04:13:54.812Z,14.93
2023-02-05T04:16:28.959Z,4.70
2023-02-05T04:19:02.559Z,10.93
2023-02-05T04:21:29.984Z,7.45
2023-02-05T04:26:30.621Z,9.25
2023-02-05T04:28:57.851Z,5.28
2023-02-05T04:31:31.603Z,8.07
2023-02-05T04:33:59.103Z,7.95
2023-02-05T04:39:06.628Z,15.35
2023-02-05T04:41:33.793Z,8.18
2023-02-05T04:44:07.663Z,5.63
2023-02-05T04:46:34.868Z,8.20
2023-02-05T04:49:02.008Z,9.10
2023-02-05T04:51:35.528Z,7.93
2023-02-05T04:54:02.774Z,10.80
2023-02-05T04:56:37.797Z,8.45
2023-02-05T04:59:05.049Z,6.22
2023-02-05T05:01:44.535Z,10.95
2023-02-05T05:04:18.497Z,13.10
2023-02-05T05:06:45.673Z,12.52
2023-02-05T05:09:12.913Z,12.20
2023-02-05T05:11:46.643Z,4.88
2023-02-05T05:14:13.870Z,8.07
2023-02-05T05:16:47.615Z,8.27
2023-02-05T05:19:14.766Z,8.13
2023-02-05T05:21:41.867Z,7.20
2023-02-05T05:24:15.558Z,6.47
2023-02-05T05:26:45.054Z,8.85
2023-02-05T05:29:19.740Z,8.02
2023-02-05T05:31:46.935Z,11.23
2023-02-05T05:34:14.126Z,11.55
2023-02-05T05:36:49.528Z,7.30
2023-02-05T05:39:42.620Z,8.80
2023-02-05T05:42:30.143Z,7.32
2023-02-05T05:45:03.504Z,12.23
2023-02-05T05:47:30.588Z,9.13
2023-02-05T05:50:04.636Z,10.60
2023-02-05T05:52:32.765Z,10.82
2023-02-05T05:55:00.163Z,5.63
2023-02-05T05:57:39.630Z,8.20
2023-02-05T06:00:13.523Z,6.93
2023-02-05T06:02:54.798Z,8.85
2023-02-05T06:05:21.873Z,11.25
2023-02-05T06:07:49.152Z,13.38
2023-02-05T06:10:22.837Z,13.98
2023-02-05T06:12:50.365Z,10.48
2023-02-05T06:15:17.616Z,13.13
2023-02-05T06:17:51.580Z,12.25
2023-02-05T06:20:18.886Z,9.40
2023-02-05T06:22:52.613Z,11.80
2023-02-05T06:25:19.872Z,7.97
2023-02-05T06:27:46.991Z,9.48
2023-02-05T06:30:20.705Z,7.00
2023-02-05T06:32:47.920Z,8.98
2023-02-05T06:35:15.057Z,7.57
2023-02-05T06:37:48.550Z,20.13
2023-02-05T06:40:18.047Z,12.68
2023-02-05T06:42:52.689Z,9.13
2023-02-05T06:45:19.935Z,12.80
2023-02-05T06:47:47.499Z,9.35
2023-02-05T06:50:21.641Z,9.48
2023-02-05T06:52:50.038Z,7.63
2023-02-05T06:55:32.582Z,11.60
2023-02-05T06:57:59.971Z,8.98
2023-02-05T07:00:40.790Z,9.52
2023-02-05T07:03:14.499Z,9.48
2023-02-05T07:05:48.550Z,6.40
2023-02-05T07:08:22.550Z,13.27
2023-02-05T07:10:49.798Z,12.52
2023-02-05T07:13:23.634Z,9.80
2023-02-05T07:15:50.810Z,10.32
2023-02-05T07:18:17.988Z,13.70
2023-02-05T07:20:51.753Z,13.07
2023-02-05T07:23:18.848Z,8.18
2023-02-05T07:25:46.305Z,17.10
2023-02-05T07:30:47.849Z,21.15
2023-02-05T07:33:21.847Z,10.82
2023-02-05T07:35:49.000Z,11.90
2023-02-05T07:38:16.100Z,17.30
2023-02-05T07:40:49.540Z,10.20
2023-02-05T07:43:16.756Z,8.65
2023-02-05T07:45:50.776Z,15.55
2023-02-05T07:48:18.000Z,14.07
2023-02-05T07:50:45.260Z,9.45
2023-02-05T07:53:18.532Z,14.15
2023-02-05T07:55:45.920Z,13.82
2023-02-05T07:58:19.687Z,13.90
2023-02-05T08:00:53.557Z,15.15
2023-02-05T08:03:33.584Z,12.00
2023-02-05T08:06:10.612Z,12.90
2023-02-05T08:08:37.794Z,14.93
2023-02-05T08:11:06.280Z,15.10
2023-02-05T08:13:40.554Z,12.15
2023-02-05T08:16:08.160Z,14.65
2023-02-05T08:18:41.672Z,11.35
2023-02-05T08:21:08.809Z,12.88
2023-02-05T08:23:35.912Z,8.55
2023-02-05T08:26:09.636Z,11.23
2023-02-05T08:28:36.807Z,13.75
2023-02-05T08:31:16.793Z,11.18
2023-02-05T08:33:44.237Z,23.02
2023-02-05T08:36:11.493Z,18.13
2023-02-05T08:38:45.578Z,16.33
2023-02-05T08:41:12.937Z,12.05
2023-02-05T08:43:47.648Z,15.13
2023-02-05T08:46:15.944Z,15.10
2023-02-05T08:48:43.102Z,16.17
2023-02-05T08:51:17.579Z,12.00
2023-02-05T08:53:44.741Z,14.25
2023-02-05T08:56:20.576Z,12.45
2023-02-05T08:58:47.713Z,13.07
2023-02-05T09:01:23.717Z,17.25
2023-02-05T09:03:57.622Z,21.02
2023-02-05T09:06:31.711Z,8.88
2023-02-05T09:08:58.903Z,11.48
2023-02-05T09:11:30.443Z,9.80
2023-02-05T09:14:04.645Z,15.45
2023-02-05T09:16:31.831Z,7.55
2023-02-05T09:19:06.742Z,17.15
2023-02-05T09:21:33.875Z,9.85
2023-02-05T09:24:01.043Z,10.15
2023-02-05T09:26:34.694Z,13.13
2023-02-05T09:29:01.980Z,11.93
2023-02-05T09:31:35.972Z,17.55
2023-02-05T09:34:03.804Z,14.07
2023-02-05T09:36:30.990Z,12.25
2023-02-05T09:39:17.439Z,14.75
2023-02-05T09:42:11.421Z,16.98
2023-02-05T09:44:56.583Z,20.73
2023-02-05T09:47:34.172Z,13.85
2023-02-05T09:50:21.565Z,19.05
2023-02-05T09:52:51.163Z,17.90
2023-02-05T09:55:27.650Z,19.13
2023-02-05T09:57:56.182Z,14.85
2023-02-05T10:00:35.659Z,17.95
2023-02-05T10:03:12.678Z,12.88
2023-02-05T10:05:54.655Z,21.20
2023-02-05T10:08:21.926Z,11.10
2023-02-05T10:10:56.660Z,12.05
2023-02-05T10:13:29.672Z,11.30
2023-02-05T10:16:09.639Z,10.57
2023-02-05T10:18:45.088Z,15.15
2023-02-05T10:21:31.665Z,12.38
2023-02-05T10:23:58.955Z,7.47
2023-02-05T10:26:38.789Z,10.65
2023-02-05T10:29:26.335Z,8.93
2023-02-05T10:32:05.594Z,13.77
2023-02-05T10:34:47.083Z,11.43
2023-02-05T10:37:27.716Z,12.20
2023-02-05T10:39:57.251Z,15.10
2023-02-05T10:42:36.702Z,13.60
2023-02-05T10:45:24.115Z,8.60
2023-02-05T10:48:05.592Z,13.18
2023-02-05T10:50:33.118Z,13.20
2023-02-05T10:53:06.629Z,11.23
2023-02-05T10:55:34.175Z,7.63
2023-02-05T10:58:03.111Z,13.63
2023-02-05T11:00:36.925Z,10.45
2023-02-05T11:03:11.560Z,11.65
2023-02-05T11:05:47.872Z,11.75
2023-02-05T11:08:33.228Z,6.35
2023-02-05T11:11:06.757Z,8.93
2023-02-05T11:13:36.022Z,8.13
2023-02-05T11:16:14.793Z,10.10
2023-02-05T11:18:44.790Z,8.82
2023-02-05T11:21:12.498Z,8.43
2023-02-05T11:23:47.742Z,5.90
2023-02-05T11:26:20.246Z,8.20
2023-02-05T11:28:54.684Z,10.45
2023-02-05T11:31:31.277Z,9.00
2023-02-05T11:34:16.631Z,8.15
2023-02-05T11:36:57.246Z,11.48
2023-02-05T11:39:43.604Z,12.65
2023-02-05T11:42:22.119Z,7.15
2023-02-05T11:44:58.602Z,6.93
2023-02-05T11:47:25.776Z,9.95
2023-02-05T11:49:53.099Z,15.23
2023-02-05T11:52:32.709Z,8.73
2023-02-05T11:54:59.867Z,13.93
2023-02-05T12:55:13.623Z,14.45
2023-02-05T12:58:01.589Z,26.17
2023-02-05T13:00:33.542Z,7.43
2023-02-05T13:03:10.561Z,5.32
2023-02-05T13:05:44.126Z,59.65
2023-02-05T13:08:20.590Z,11.00
2023-02-05T13:10:56.783Z,5.80
2023-02-05T13:13:33.573Z,8.73
2023-02-05T13:16:06.941Z,3.83
2023-02-05T13:18:47.691Z,7.03
2023-02-05T13:21:36.756Z,5.63
2023-02-05T13:24:52.555Z,6.35
2023-02-05T13:27:41.085Z,5.53
2023-02-05T13:30:35.899Z,6.80
2023-02-05T13:33:05.153Z,3.67
2023-02-05T13:35:41.569Z,4.40
2023-02-05T13:38:21.328Z,3.92
2023-02-05T13:41:18.588Z,7.72
2023-02-05T13:43:58.193Z,6.68
2023-02-05T13:46:34.581Z,5.93
2023-02-05T13:49:10.706Z,7.82
2023-02-05T13:51:49.550Z,5.95
2023-02-05T13:54:19.998Z,8.52
2023-02-05T13:57:11.565Z,7.50
2023-02-05T13:59:40.652Z,5.95
2023-02-05T14:02:34.618Z,6.70
2023-02-05T14:05:02.456Z,7.55
2023-02-05T14:07:41.608Z,5.35
2023-02-05T14:10:30.408Z,8.50
2023-02-05T14:15:38.469Z,7.90
2023-02-05T14:18:12.584Z,12.50
2023-02-05T14:20:41.736Z,8.07
2023-02-05T14:23:23.706Z,6.28
2023-02-05T14:26:06.375Z,6.93
2023-02-05T14:28:41.584Z,7.78
2023-02-05T14:31:08.903Z,8.80
2023-02-05T14:33:49.585Z,8.90
2023-02-05T14:36:17.124Z,15.63
2023-02-05T14:41:20.768Z,352.65
2023-02-05T14:44:02.700Z,251.52
2023-02-05T14:46:36.701Z,122.60
2023-02-05T14:49:12.620Z,55.35
2023-02-05T14:51:41.370Z,92.43
2023-02-05T14:54:29.615Z,25.45
2023-02-05T14:57:23.718Z,37.92
2023-02-05T15:00:02.587Z,49.90
2023-02-05T15:02:48.762Z,47.78
2023-02-05T15:05:42.640Z,41.42
2023-02-05T15:08:28.489Z,24.05
2023-02-05T15:11:02.643Z,13.82
2023-02-05T15:13:30.100Z,18.83
2023-02-05T15:16:18.792Z,14.50
2023-02-05T15:19:21.762Z,18.30
2023-02-05T15:21:58.621Z,14.13
2023-02-05T15:24:28.748Z,18.90
2023-02-05T15:27:06.727Z,14.05
2023-02-05T15:29:41.333Z,11.68
2023-02-05T15:32:24.593Z,10.70
2023-02-05T15:34:58.725Z,11.25
2023-02-05T15:37:34.158Z,14.77
2023-02-05T15:40:16.652Z,13.55
2023-02-05T15:42:45.282Z,11.07
2023-02-05T15:45:29.701Z,17.33
2023-02-05T15:47:59.918Z,12.38
2023-02-05T15:50:34.672Z,15.23
2023-02-05T15:53:02.428Z,13.32
2023-02-05T15:55:36.947Z,20.63
2023-02-05T15:58:26.617Z,16.52
2023-02-05T16:01:02.754Z,17.35
2023-02-05T16:03:38.768Z,13.82
2023-02-05T16:06:13.787Z,15.48
2023-02-05T16:08:46.239Z,14.15
2023-02-05T16:11:19.823Z,12.98
2023-02-05T16:13:47.977Z,17.27
2023-02-05T16:16:19.487Z,24.25
2023-02-05T16:18:58.800Z,16.75
2023-02-05T16:21:32.304Z,20.65
2023-02-05T16:24:07.672Z,23.88
2023-02-05T16:26:40.636Z,31.40
2023-02-05T16:29:24.849Z,35.92
2023-02-05T16:32:02.301Z,183.85
2023-02-05T16:34:37.789Z,43.47
2023-02-05T16:37:06.127Z,24.92
2023-02-05T16:39:50.720Z,60.80
2023-02-05T16:42:27.193Z,211.15
2023-02-05T16:45:20.664Z,249.40
2023-02-05T16:48:15.437Z,103.63
2023-02-05T16:50:50.683Z,33.55
2023-02-05T16:53:21.158Z,54.60
2023-02-05T16:55:55.988Z,65.15
2023-02-05T16:58:35.936Z,19.13
2023-02-05T17:01:10.879Z,29.98
2023-02-05T17:03:41.897Z,25.70
2023-02-05T17:06:19.741Z,18.40
2023-02-05T17:08:55.153Z,19.13
2023-02-05T17:11:40.939Z,12.68
2023-02-05T17:14:11.402Z,23.48
2023-02-05T17:16:48.736Z,27.00
2023-02-05T17:19:23.732Z,22.10
2023-02-05T17:22:17.729Z,20.90
2023-02-05T17:24:46.140Z,20.42
2023-02-05T17:27:29.731Z,16.67
2023-02-05T17:29:57.479Z,18.73
2023-02-05T17:32:31.675Z,17.40
2023-02-05T17:35:00.105Z,17.73
2023-02-05T17:37:33.843Z,17.33
2023-02-05T17:40:00.998Z,12.02
2023-02-05T17:42:31.060Z,13.55
2023-02-05T17:45:04.804Z,8.82
2023-02-05T17:47:31.980Z,12.48
2023-02-05T17:50:05.844Z,13.10
2023-02-05T17:52:33.017Z,13.48
2023-02-05T17:55:00.122Z,14.10
2023-02-05T17:57:33.810Z,11.20
2023-02-05T18:00:01.015Z,13.25
2023-02-05T18:02:34.884Z,11.02
2023-02-05T18:05:02.014Z,11.43
2023-02-05T18:07:32.673Z,10.18
2023-02-05T18:10:06.775Z,9.90
2023-02-05T18:12:34.075Z,10.68
2023-02-05T18:15:07.844Z,10.80
2023-02-05T18:17:35.050Z,12.52
2023-02-05T18:20:04.179Z,10.70
2023-02-05T18:22:37.909Z,13.10
2023-02-05T18:25:05.975Z,14.50
2023-02-05T18:27:33.271Z,16.95
2023-02-05T18:30:06.726Z,13.93
2023-02-05T18:32:33.939Z,16.02
2023-02-05T18:35:07.926Z,14.73
2023-02-05T18:37:36.671Z,14.32
2023-02-05T18:40:04.541Z,13.85
2023-02-05T18:42:38.712Z,19.60
2023-02-05T18:45:05.957Z,16.77
2023-02-05T18:47:39.720Z,16.25
2023-02-05T18:50:09.292Z,18.60
2023-02-05T18:52:43.754Z,21.90
2023-02-05T18:55:12.434Z,14.10
2023-02-05T18:57:52.779Z,16.67
2023-02-05T19:00:20.058Z,16.17
2023-02-05T19:02:53.687Z,11.45
2023-02-05T19:05:27.698Z,60.10
2023-02-05T19:08:01.736Z,16.90
2023-02-05T19:10:35.996Z,18.02
2023-02-05T19:13:03.389Z,17.05
2023-02-05T19:15:31.649Z,20.58
2023-02-05T19:18:05.787Z,18.33
2023-02-05T19:20:34.776Z,18.55
2023-02-05T19:23:12.986Z,20.83
2023-02-05T19:25:40.197Z,14.43
2023-02-05T19:28:07.294Z,12.35
2023-02-05T19:33:09.289Z,27.33
2023-02-05T19:35:36.441Z,13.95
2023-02-05T19:38:09.719Z,45.63
2023-02-05T19:40:37.205Z,95.07
2023-02-05T19:43:10.972Z,291.58
2023-02-05T19:45:38.112Z,466.65
2023-02-05T19:48:05.754Z,121.40
2023-02-05T19:50:39.843Z,54.45
2023-02-05T19:53:07.056Z,41.50
2023-02-05T19:55:40.827Z,184.85
2023-02-05T19:58:14.720Z,168.38
2023-02-05T20:00:48.839Z,424.02
2023-02-05T20:03:16.072Z,250.65
2023-02-05T20:05:43.154Z,211.00
2023-02-05T20:08:16.785Z,73.43
2023-02-05T20:10:43.955Z,102.30
2023-02-05T20:13:17.862Z,65.60
2023-02-05T20:15:45.025Z,153.20
2023-02-05T20:18:12.155Z,119.53
2023-02-05T20:20:48.287Z,240.98
2023-02-05T20:23:15.663Z,143.70
2023-02-05T20:25:42.748Z,184.18
2023-02-05T20:28:16.885Z,204.00
2023-02-05T20:31:17.645Z,167.35
2023-02-05T20:33:57.711Z,72.30
2023-02-05T20:36:25.183Z,66.22
2023-02-05T20:39:05.890Z,75.82
2023-02-05T20:41:33.589Z,189.43
2023-02-05T20:44:00.697Z,210.13
2023-02-05T20:46:34.950Z,318.92
2023-02-05T20:49:03.472Z,206.38
2023-02-05T20:51:37.753Z,223.52
2023-02-05T20:54:05.428Z,111.45
2023-02-05T20:56:39.860Z,133.27
2023-02-05T20:59:14.712Z,188.80
2023-02-05T21:01:48.827Z,165.07
2023-02-05T21:04:22.686Z,116.15
2023-02-05T21:06:50.017Z,146.13
2023-02-05T21:09:23.668Z,299.30
2023-02-05T21:11:55.377Z,172.63
2023-02-05T21:14:29.660Z,96.22
2023-02-05T21:16:56.978Z,101.25
2023-02-05T21:19:24.244Z,152.32
2023-02-05T21:21:58.778Z,227.82
2023-02-05T21:24:26.010Z,206.90
2023-02-05T21:26:53.148Z,260.10
2023-02-05T21:29:27.890Z,290.63
2023-02-05T21:31:55.637Z,206.70
2023-02-05T21:34:25.468Z,270.98
2023-02-05T21:36:59.767Z,245.05
2023-02-05T21:39:33.664Z,255.40
2023-02-05T21:42:07.821Z,279.10
2023-02-05T21:44:35.078Z,282.23
2023-02-05T21:47:02.155Z,357.20
2023-02-05T21:49:35.765Z,326.75
2023-02-05T21:52:09.666Z,293.55
2023-02-05T21:54:43.760Z,430.13
2023-02-05T21:57:33.667Z,463.33
2023-02-05T22:00:09.857Z,172.02
2023-02-05T22:02:37.664Z,259.05
2023-02-05T22:05:04.764Z,251.65
2023-02-05T22:07:38.767Z,261.33
2023-02-05T22:10:06.074Z,276.08
2023-02-05T22:12:39.862Z,188.88
2023-02-05T22:15:07.042Z,244.35
2023-02-05T22:17:34.299Z,270.23
2023-02-05T22:20:07.732Z,361.17
2023-02-05T22:22:36.627Z,297.92
2023-02-05T22:25:10.805Z,425.85
2023-02-05T22:27:37.992Z,337.52
2023-02-05T22:30:05.172Z,220.13
2023-02-05T22:32:38.914Z,314.60
2023-02-05T22:35:06.190Z,240.05
2023-02-05T22:37:34.109Z,286.00
2023-02-05T22:40:07.801Z,198.27
2023-02-05T22:42:34.956Z,114.85
2023-02-05T22:45:08.877Z,159.57
2023-02-05T22:47:36.089Z,345.02
2023-02-05T22:50:03.449Z,167.90
2023-02-05T22:52:36.849Z,389.05
2023-02-05T22:55:04.125Z,191.27
2023-02-05T22:57:37.918Z,299.20
2023-02-05T23:00:12.439Z,178.60
2023-02-05T23:02:45.815Z,203.25
2023-02-05T23:05:13.056Z,149.82
2023-02-05T23:07:40.141Z,129.52
2023-02-05T23:10:13.839Z,284.80
2023-02-05T23:12:40.977Z,253.93
2023-02-05T23:15:14.899Z,146.13
2023-02-05T23:17:42.196Z,332.95
2023-02-05T23:20:10.041Z,244.65
2023-02-05T23:22:43.779Z,228.32
2023-02-05T23:25:11.412Z,130.27
2023-02-05T23:27:45.919Z,216.90
2023-02-05T23:30:19.846Z,205.68
2023-02-05T23:32:53.923Z,323.88
2023-02-05T23:35:21.183Z,318.33
2023-02-05T23:37:48.272Z,267.13
2023-02-05T23:40:21.764Z,223.13
2023-02-05T23:42:48.980Z,139.93
2023-02-05T23:45:22.906Z,200.27
2023-02-05T23:47:50.051Z,114.68
2023-02-05T23:50:17.141Z,162.48
2023-02-05T23:52:50.903Z,219.40
2023-02-05T23:55:18.085Z,156.93
2023-02-05T23:57:51.821Z,172.40
